sensor_id;sensor_type;location;lat;lon;timestamp;pressure;altitude;pressure_sealevel;temperature;humidity
37694;BME280;23531;50.122;8.644;2023-04-28T00:01:14;100417.88;;;13.80;nan
37694;BME280;23531;50.122;8.644;2023-04-28T00:03:15;100413.63;;;13.72;nan
37694;BME280;23531;50.122;8.644;2023-04-28T00:05:16;100410.34;;;13.70;nan
37694;BME280;23531;50.122;8.644;2023-04-28T00:07:18;100410.56;;;13.69;nan
37694;BME280;23531;50.122;8.644;2023-04-28T00:09:19;100407.63;;;13.70;nan
37694;BME280;23531;50.122;8.644;2023-04-28T00:11:22;100409.66;;;13.75;nan
37694;BME280;23531;50.122;8.644;2023-04-28T00:13:23;100395.91;;;13.76;nan
37694;BME280;23531;50.122;8.644;2023-04-28T00:15:24;100398.72;;;13.70;nan
37694;BME280;23531;50.122;8.644;2023-04-28T00:17:26;100386.47;;;13.67;nan
37694;BME280;23531;50.122;8.644;2023-04-28T00:19:27;100381.94;;;13.79;nan
37694;BME280;23531;50.122;8.644;2023-04-28T00:21:28;100388.50;;;13.72;nan
37694;BME280;23531;50.122;8.644;2023-04-28T00:23:29;100381.53;;;13.53;nan
37694;BME280;23531;50.122;8.644;2023-04-28T00:25:30;100375.56;;;13.32;nan
37694;BME280;23531;50.122;8.644;2023-04-28T00:27:33;100366.72;;;13.25;nan
37694;BME280;23531;50.122;8.644;2023-04-28T00:29:34;100368.88;;;13.35;nan
37694;BME280;23531;50.122;8.644;2023-04-28T00:31:36;100369.09;;;13.33;nan
37694;BME280;23531;50.122;8.644;2023-04-28T00:33:38;100359.66;;;13.42;nan
37694;BME280;23531;50.122;8.644;2023-04-28T00:35:39;100355.56;;;13.52;nan
37694;BME280;23531;50.122;8.644;2023-04-28T00:37:40;100363.69;;;13.63;nan
37694;BME280;23531;50.122;8.644;2023-04-28T00:39:42;100358.41;;;13.68;nan
37694;BME280;23531;50.122;8.644;2023-04-28T00:41:46;100358.97;;;13.59;nan
37694;BME280;23531;50.122;8.644;2023-04-28T00:43:48;100352.97;;;13.57;nan
37694;BME280;23531;50.122;8.644;2023-04-28T00:45:50;100350.41;;;13.62;nan
37694;BME280;23531;50.122;8.644;2023-04-28T00:47:51;100339.16;;;13.65;nan
37694;BME280;23531;50.122;8.644;2023-04-28T00:49:52;100337.13;;;13.60;nan
37694;BME280;23531;50.122;8.644;2023-04-28T00:51:55;100336.75;;;13.57;nan
37694;BME280;23531;50.122;8.644;2023-04-28T00:53:57;100338.19;;;13.59;nan
37694;BME280;23531;50.122;8.644;2023-04-28T00:55:58;100339.59;;;13.62;nan
37694;BME280;23531;50.122;8.644;2023-04-28T00:58:00;100344.03;;;13.56;nan
37694;BME280;23531;50.122;8.644;2023-04-28T01:00:04;100337.34;;;13.59;nan
37694;BME280;23531;50.122;8.644;2023-04-28T01:02:05;100334.44;;;13.60;nan
37694;BME280;23531;50.122;8.644;2023-04-28T01:04:07;100334.06;;;13.57;nan
37694;BME280;23531;50.122;8.644;2023-04-28T01:06:08;100342.31;;;13.62;nan
37694;BME280;23531;50.122;8.644;2023-04-28T01:08:10;100340.53;;;13.67;nan
37694;BME280;23531;50.122;8.644;2023-04-28T01:10:11;100327.16;;;13.61;nan
37694;BME280;23531;50.122;8.644;2023-04-28T01:12:12;100319.41;;;13.64;nan
37694;BME280;23531;50.122;8.644;2023-04-28T01:14:13;100321.97;;;13.59;nan
37694;BME280;23531;50.122;8.644;2023-04-28T01:16:16;100315.88;;;13.52;nan
37694;BME280;23531;50.122;8.644;2023-04-28T01:18:17;100300.47;;;13.53;nan
37694;BME280;23531;50.122;8.644;2023-04-28T01:20:18;100307.16;;;13.50;nan
37694;BME280;23531;50.122;8.644;2023-04-28T01:22:20;100310.09;;;13.49;nan
37694;BME280;23531;50.122;8.644;2023-04-28T01:24:22;100303.88;;;13.48;nan
37694;BME280;23531;50.122;8.644;2023-04-28T01:26:23;100303.19;;;13.53;nan
37694;BME280;23531;50.122;8.644;2023-04-28T01:28:25;100307.16;;;13.50;nan
37694;BME280;23531;50.122;8.644;2023-04-28T01:30:26;100305.06;;;13.52;nan
37694;BME280;23531;50.122;8.644;2023-04-28T01:32:28;100297.78;;;13.53;nan
37694;BME280;23531;50.122;8.644;2023-04-28T01:34:29;100295.31;;;13.51;nan
37694;BME280;23531;50.122;8.644;2023-04-28T01:36:30;100292.84;;;13.50;nan
37694;BME280;23531;50.122;8.644;2023-04-28T01:38:32;100289.53;;;13.48;nan
37694;BME280;23531;50.122;8.644;2023-04-28T01:40:34;100282.03;;;13.50;nan
37694;BME280;23531;50.122;8.644;2023-04-28T01:42:36;100279.78;;;13.47;nan
37694;BME280;23531;50.122;8.644;2023-04-28T01:44:37;100276.25;;;13.46;nan
37694;BME280;23531;50.122;8.644;2023-04-28T01:46:39;100276.03;;;13.48;nan
37694;BME280;23531;50.122;8.644;2023-04-28T01:48:40;100274.38;;;13.47;nan
37694;BME280;23531;50.122;8.644;2023-04-28T01:50:41;100263.56;;;13.47;nan
37694;BME280;23531;50.122;8.644;2023-04-28T01:52:43;100257.56;;;13.44;nan
37694;BME280;23531;50.122;8.644;2023-04-28T01:54:44;100258.41;;;13.45;nan
37694;BME280;23531;50.122;8.644;2023-04-28T01:56:47;100258.19;;;13.47;nan
37694;BME280;23531;50.122;8.644;2023-04-28T01:58:48;100256.53;;;13.45;nan
37694;BME280;23531;50.122;8.644;2023-04-28T02:00:49;100267.44;;;13.39;nan
37694;BME280;23531;50.122;8.644;2023-04-28T02:02:50;100264.97;;;13.37;nan
37694;BME280;23531;50.122;8.644;2023-04-28T02:04:51;100258.63;;;13.43;nan
37694;BME280;23531;50.122;8.644;2023-04-28T02:06:53;100263.56;;;13.47;nan
37694;BME280;23531;50.122;8.644;2023-04-28T02:08:54;100270.16;;;13.39;nan
37694;BME280;23531;50.122;8.644;2023-04-28T02:10:55;100273.19;;;13.31;nan
37694;BME280;23531;50.122;8.644;2023-04-28T02:12:58;100279.41;;;13.31;nan
37694;BME280;23531;50.122;8.644;2023-04-28T02:14:59;100281.63;;;13.34;nan
37694;BME280;23531;50.122;8.644;2023-04-28T02:17:01;100286.59;;;13.37;nan
37694;BME280;23531;50.122;8.644;2023-04-28T02:19:04;100288.56;;;13.30;nan
37694;BME280;23531;50.122;8.644;2023-04-28T02:21:08;100283.03;;;13.25;nan
37694;BME280;23531;50.122;8.644;2023-04-28T02:23:10;100286.78;;;13.24;nan
37694;BME280;23531;50.122;8.644;2023-04-28T02:25:12;100286.56;;;13.26;nan
37694;BME280;23531;50.122;8.644;2023-04-28T02:27:13;100290.06;;;13.26;nan
37694;BME280;23531;50.122;8.644;2023-04-28T02:29:15;100289.47;;;13.24;nan
37694;BME280;23531;50.122;8.644;2023-04-28T02:31:17;100287.22;;;13.21;nan
37694;BME280;23531;50.122;8.644;2023-04-28T02:33:18;100280.94;;;13.27;nan
37694;BME280;23531;50.122;8.644;2023-04-28T02:35:19;100288.09;;;13.33;nan
37694;BME280;23531;50.122;8.644;2023-04-28T02:37:21;100285.75;;;13.37;nan
37694;BME280;23531;50.122;8.644;2023-04-28T02:39:22;100280.59;;;13.35;nan
37694;BME280;23531;50.122;8.644;2023-04-28T02:41:25;100277.06;;;13.05;nan
37694;BME280;23531;50.122;8.644;2023-04-28T02:43:27;100261.09;;;13.03;nan
37694;BME280;23531;50.122;8.644;2023-04-28T02:45:29;100259.38;;;13.09;nan
37694;BME280;23531;50.122;8.644;2023-04-28T02:47:31;100254.13;;;12.84;nan
37694;BME280;23531;50.122;8.644;2023-04-28T02:49:32;100248.44;;;13.04;nan
37694;BME280;23531;50.122;8.644;2023-04-28T02:51:33;100244.22;;;13.08;nan
37694;BME280;23531;50.122;8.644;2023-04-28T02:53:34;100248.56;;;13.09;nan
37694;BME280;23531;50.122;8.644;2023-04-28T02:55:36;100244.56;;;13.12;nan
37694;BME280;23531;50.122;8.644;2023-04-28T02:57:37;100239.78;;;13.14;nan
37694;BME280;23531;50.122;8.644;2023-04-28T02:59:38;100240.47;;;13.09;nan
37694;BME280;23531;50.122;8.644;2023-04-28T03:01:41;100240.78;;;13.01;nan
37694;BME280;23531;50.122;8.644;2023-04-28T03:03:42;100235.31;;;13.07;nan
37694;BME280;23531;50.122;8.644;2023-04-28T03:05:43;100230.09;;;12.94;nan
37694;BME280;23531;50.122;8.644;2023-04-28T03:07:45;100237.41;;;12.76;nan
37694;BME280;23531;50.122;8.644;2023-04-28T03:09:46;100242.94;;;12.81;nan
37694;BME280;23531;50.122;8.644;2023-04-28T03:11:47;100231.22;;;12.87;nan
37694;BME280;23531;50.122;8.644;2023-04-28T03:13:48;100224.69;;;12.94;nan
37694;BME280;23531;50.122;8.644;2023-04-28T03:15:50;100228.69;;;12.92;nan
37694;BME280;23531;50.122;8.644;2023-04-28T03:17:52;100224.94;;;12.93;nan
37694;BME280;23531;50.122;8.644;2023-04-28T03:19:54;100208.84;;;12.86;nan
37694;BME280;23531;50.122;8.644;2023-04-28T03:21:55;100212.59;;;12.85;nan
37694;BME280;23531;50.122;8.644;2023-04-28T03:23:56;100217.16;;;12.85;nan
37694;BME280;23531;50.122;8.644;2023-04-28T03:25:57;100208.25;;;12.84;nan
37694;BME280;23531;50.122;8.644;2023-04-28T03:27:58;100212.22;;;12.82;nan
37694;BME280;23531;50.122;8.644;2023-04-28T03:30:00;100212.59;;;12.85;nan
37694;BME280;23531;50.122;8.644;2023-04-28T03:32:01;100215.41;;;12.90;nan
37694;BME280;23531;50.122;8.644;2023-04-28T03:34:03;100212.13;;;12.88;nan
37694;BME280;23531;50.122;8.644;2023-04-28T03:36:05;100202.50;;;12.92;nan
37694;BME280;23531;50.122;8.644;2023-04-28T03:38:06;100216.59;;;12.94;nan
37694;BME280;23531;50.122;8.644;2023-04-28T03:40:08;100211.22;;;12.94;nan
37694;BME280;23531;50.122;8.644;2023-04-28T03:42:09;100205.47;;;13.02;nan
37694;BME280;23531;50.122;8.644;2023-04-28T03:44:11;100200.38;;;12.83;nan
37694;BME280;23531;50.122;8.644;2023-04-28T03:46:12;100192.28;;;12.53;nan
37694;BME280;23531;50.122;8.644;2023-04-28T03:48:13;100195.84;;;12.65;nan
37694;BME280;23531;50.122;8.644;2023-04-28T03:50:16;100196.94;;;12.76;nan
37694;BME280;23531;50.122;8.644;2023-04-28T03:52:17;100196.94;;;12.76;nan
37694;BME280;23531;50.122;8.644;2023-04-28T03:54:19;100199.56;;;12.82;nan
37694;BME280;23531;50.122;8.644;2023-04-28T03:56:20;100187.28;;;12.98;nan
37694;BME280;23531;50.122;8.644;2023-04-28T03:58:21;100188.44;;;13.02;nan
37694;BME280;23531;50.122;8.644;2023-04-28T04:00:23;100184.47;;;13.04;nan
37694;BME280;23531;50.122;8.644;2023-04-28T04:02:24;100188.09;;;13.10;nan
37694;BME280;23531;50.122;8.644;2023-04-28T04:04:25;100173.44;;;13.06;nan
37694;BME280;23531;50.122;8.644;2023-04-28T04:06:28;100179.78;;;13.12;nan
37694;BME280;23531;50.122;8.644;2023-04-28T04:08:29;100180.31;;;13.20;nan
37694;BME280;23531;50.122;8.644;2023-04-28T04:10:31;100170.69;;;13.24;nan
37694;BME280;23531;50.122;8.644;2023-04-28T04:12:33;100176.44;;;13.16;nan
37694;BME280;23531;50.122;8.644;2023-04-28T04:14:34;100175.84;;;13.26;nan
37694;BME280;23531;50.122;8.644;2023-04-28T04:16:35;100171.63;;;13.30;nan
37694;BME280;23531;50.122;8.644;2023-04-28T04:18:37;100159.66;;;13.26;nan
37694;BME280;23531;50.122;8.644;2023-04-28T04:20:38;100160.47;;;13.26;nan
37694;BME280;23531;50.122;8.644;2023-04-28T04:22:40;100157.31;;;13.29;nan
37694;BME280;23531;50.122;8.644;2023-04-28T04:24:42;100156.59;;;13.34;nan
37694;BME280;23531;50.122;8.644;2023-04-28T04:26:43;100154.72;;;13.23;nan
37694;BME280;23531;50.122;8.644;2023-04-28T04:28:44;100146.16;;;13.26;nan
37694;BME280;23531;50.122;8.644;2023-04-28T04:30:45;100146.38;;;13.24;nan
37694;BME280;23531;50.122;8.644;2023-04-28T04:32:47;100141.22;;;13.23;nan
37694;BME280;23531;50.122;8.644;2023-04-28T04:34:48;100139.69;;;13.15;nan
37694;BME280;23531;50.122;8.644;2023-04-28T04:36:49;100137.38;;;12.89;nan
37694;BME280;23531;50.122;8.644;2023-04-28T04:38:52;100146.50;;;12.76;nan
37694;BME280;23531;50.122;8.644;2023-04-28T04:40:53;100148.06;;;12.84;nan
37694;BME280;23531;50.122;8.644;2023-04-28T04:42:54;100151.25;;;13.04;nan
37694;BME280;23531;50.122;8.644;2023-04-28T04:44:55;100153.78;;;13.17;nan
37694;BME280;23531;50.122;8.644;2023-04-28T04:46:57;100160.09;;;13.23;nan
37694;BME280;23531;50.122;8.644;2023-04-28T04:48:58;100169.38;;;13.15;nan
37694;BME280;23531;50.122;8.644;2023-04-28T04:50:59;100161.47;;;13.14;nan
37694;BME280;23531;50.122;8.644;2023-04-28T04:53:01;100169.16;;;13.17;nan
37694;BME280;23531;50.122;8.644;2023-04-28T04:55:04;100171.09;;;13.09;nan
37694;BME280;23531;50.122;8.644;2023-04-28T04:57:05;100182.16;;;13.08;nan
37694;BME280;23531;50.122;8.644;2023-04-28T04:59:07;100180.84;;;13.10;nan
37694;BME280;23531;50.122;8.644;2023-04-28T05:01:08;100180.59;;;13.12;nan
37694;BME280;23531;50.122;8.644;2023-04-28T05:03:10;100185.75;;;13.02;nan
37694;BME280;23531;50.122;8.644;2023-04-28T05:05:11;100188.91;;;12.99;nan
37694;BME280;23531;50.122;8.644;2023-04-28T05:07:12;100190.63;;;12.82;nan
37694;BME280;23531;50.122;8.644;2023-04-28T05:09:14;100185.25;;;12.82;nan
37694;BME280;23531;50.122;8.644;2023-04-28T05:11:16;100184.78;;;12.85;nan
37694;BME280;23531;50.122;8.644;2023-04-28T05:13:18;100187.44;;;12.73;nan
37694;BME280;23531;50.122;8.644;2023-04-28T05:15:19;100191.19;;;12.72;nan
37694;BME280;23531;50.122;8.644;2023-04-28T05:17:20;100184.16;;;12.71;nan
37694;BME280;23531;50.122;8.644;2023-04-28T05:19:22;100182.91;;;12.55;nan
37694;BME280;23531;50.122;8.644;2023-04-28T05:21:23;100184.78;;;12.55;nan
37694;BME280;23531;50.122;8.644;2023-04-28T05:23:25;100173.91;;;12.61;nan
37694;BME280;23531;50.122;8.644;2023-04-28T05:25:26;100174.25;;;12.65;nan
37694;BME280;23531;50.122;8.644;2023-04-28T05:27:28;100172.28;;;12.60;nan
37694;BME280;23531;50.122;8.644;2023-04-28T05:29:30;100181.50;;;12.53;nan
37694;BME280;23531;50.122;8.644;2023-04-28T05:31:31;100178.78;;;12.53;nan
37694;BME280;23531;50.122;8.644;2023-04-28T05:33:32;100179.34;;;12.43;nan
37694;BME280;23531;50.122;8.644;2023-04-28T05:35:34;100177.41;;;12.50;nan
37694;BME280;23531;50.122;8.644;2023-04-28T05:37:35;100179.06;;;12.33;nan
37694;BME280;23531;50.122;8.644;2023-04-28T05:39:37;100181.41;;;12.29;nan
37694;BME280;23531;50.122;8.644;2023-04-28T05:41:38;100178.94;;;12.28;nan
37694;BME280;23531;50.122;8.644;2023-04-28T05:43:44;100186.03;;;12.41;nan
37694;BME280;23531;50.122;8.644;2023-04-28T05:45:46;100191.94;;;12.49;nan
37694;BME280;23531;50.122;8.644;2023-04-28T05:47:48;100187.97;;;12.52;nan
37694;BME280;23531;50.122;8.644;2023-04-28T05:49:49;100194.03;;;12.47;nan
37694;BME280;23531;50.122;8.644;2023-04-28T05:51:50;100192.75;;;12.50;nan
37694;BME280;23531;50.122;8.644;2023-04-28T05:53:51;100199.78;;;12.51;nan
37694;BME280;23531;50.122;8.644;2023-04-28T05:55:53;100212.75;;;12.42;nan
37694;BME280;23531;50.122;8.644;2023-04-28T05:57:54;100209.16;;;12.48;nan
37694;BME280;23531;50.122;8.644;2023-04-28T05:59:57;100207.50;;;12.47;nan
37694;BME280;23531;50.122;8.644;2023-04-28T06:01:58;100198.91;;;12.20;nan
37694;BME280;23531;50.122;8.644;2023-04-28T06:03:59;100200.03;;;12.31;nan
37694;BME280;23531;50.122;8.644;2023-04-28T06:06:00;100205.34;;;12.38;nan
37694;BME280;23531;50.122;8.644;2023-04-28T06:08:02;100203.47;;;12.38;nan
37694;BME280;23531;50.122;8.644;2023-04-28T06:10:03;100214.94;;;12.33;nan
37694;BME280;23531;50.122;8.644;2023-04-28T06:12:05;100222.72;;;12.42;nan
37694;BME280;23531;50.122;8.644;2023-04-28T06:14:07;100212.75;;;12.42;nan
37694;BME280;23531;50.122;8.644;2023-04-28T06:16:09;100218.84;;;12.38;nan
37694;BME280;23531;50.122;8.644;2023-04-28T06:18:11;100216.88;;;12.45;nan
37694;BME280;23531;50.122;8.644;2023-04-28T06:20:12;100213.72;;;12.48;nan
37694;BME280;23531;50.122;8.644;2023-04-28T06:22:13;100209.38;;;12.47;nan
37694;BME280;23531;50.122;8.644;2023-04-28T06:24:14;100209.94;;;12.37;nan
37694;BME280;23531;50.122;8.644;2023-04-28T06:26:16;100204.22;;;12.45;nan
37694;BME280;23531;50.122;8.644;2023-04-28T06:28:17;100202.28;;;12.34;nan
37694;BME280;23531;50.122;8.644;2023-04-28T06:30:19;100205.13;;;12.39;nan
37694;BME280;23531;50.122;8.644;2023-04-28T06:32:22;100210.31;;;12.41;nan
37694;BME280;23531;50.122;8.644;2023-04-28T06:34:23;100214.41;;;12.43;nan
37694;BME280;23531;50.122;8.644;2023-04-28T06:36:27;100218.50;;;12.46;nan
37694;BME280;23531;50.122;8.644;2023-04-28T06:38:28;100222.13;;;12.40;nan
37694;BME280;23531;50.122;8.644;2023-04-28T06:40:30;100219.66;;;12.38;nan
37694;BME280;23531;50.122;8.644;2023-04-28T06:42:31;100225.00;;;12.26;nan
37694;BME280;23531;50.122;8.644;2023-04-28T06:44:32;100214.44;;;12.25;nan
37694;BME280;23531;50.122;8.644;2023-04-28T06:46:35;100212.47;;;12.32;nan
37694;BME280;23531;50.122;8.644;2023-04-28T06:48:37;100220.66;;;12.25;nan
37694;BME280;23531;50.122;8.644;2023-04-28T06:50:39;100216.47;;;12.29;nan
37694;BME280;23531;50.122;8.644;2023-04-28T06:52:40;100227.81;;;12.31;nan
37694;BME280;23531;50.122;8.644;2023-04-28T06:54:41;100222.47;;;12.43;nan
37694;BME280;23531;50.122;8.644;2023-04-28T06:56:42;100220.16;;;12.47;nan
37694;BME280;23531;50.122;8.644;2023-04-28T06:58:44;100224.22;;;12.38;nan
37694;BME280;23531;50.122;8.644;2023-04-28T07:00:45;100217.50;;;12.28;nan
37694;BME280;23531;50.122;8.644;2023-04-28T07:02:46;100209.31;;;12.35;nan
37694;BME280;23531;50.122;8.644;2023-04-28T07:04:49;100196.91;;;11.97;nan
37694;BME280;23531;50.122;8.644;2023-04-28T07:06:50;100190.75;;;11.72;nan
37694;BME280;23531;50.122;8.644;2023-04-28T07:08:52;100189.09;;;11.71;nan
37694;BME280;23531;50.122;8.644;2023-04-28T07:10:53;100189.44;;;11.75;nan
37694;BME280;23531;50.122;8.644;2023-04-28T07:12:54;100195.78;;;11.87;nan
37694;BME280;23531;50.122;8.644;2023-04-28T07:14:56;100192.28;;;12.05;nan
37694;BME280;23531;50.122;8.644;2023-04-28T07:16:57;100173.09;;;12.13;nan
37694;BME280;23531;50.122;8.644;2023-04-28T07:18:58;100174.53;;;12.15;nan
37694;BME280;23531;50.122;8.644;2023-04-28T07:21:01;100182.91;;;12.25;nan
37694;BME280;23531;50.122;8.644;2023-04-28T07:23:02;100188.41;;;12.30;nan
37694;BME280;23531;50.122;8.644;2023-04-28T07:25:04;100181.69;;;12.21;nan
37694;BME280;23531;50.122;8.644;2023-04-28T07:27:05;100166.59;;;12.02;nan
37694;BME280;23531;50.122;8.644;2023-04-28T07:29:06;100160.47;;;11.95;nan
37694;BME280;23531;50.122;8.644;2023-04-28T07:31:09;100161.88;;;11.79;nan
37694;BME280;23531;50.122;8.644;2023-04-28T07:33:10;100170.84;;;11.73;nan
37694;BME280;23531;50.122;8.644;2023-04-28T07:35:12;100177.31;;;11.90;nan
37694;BME280;23531;50.122;8.644;2023-04-28T07:37:14;100177.97;;;12.04;nan
37694;BME280;23531;50.122;8.644;2023-04-28T07:39:16;100171.06;;;12.08;nan
37694;BME280;23531;50.122;8.644;2023-04-28T07:41:17;100170.63;;;12.11;nan
37694;BME280;23531;50.122;8.644;2023-04-28T07:43:18;100164.28;;;12.06;nan
37694;BME280;23531;50.122;8.644;2023-04-28T07:45:20;100166.50;;;12.09;nan
37694;BME280;23531;50.122;8.644;2023-04-28T07:47:21;100160.69;;;11.93;nan
37694;BME280;23531;50.122;8.644;2023-04-28T07:49:22;100162.63;;;11.86;nan
37694;BME280;23531;50.122;8.644;2023-04-28T07:51:24;100151.28;;;11.84;nan
37694;BME280;23531;50.122;8.644;2023-04-28T07:53:27;100150.50;;;11.77;nan
37694;BME280;23531;50.122;8.644;2023-04-28T07:55:28;100153.16;;;11.84;nan
37694;BME280;23531;50.122;8.644;2023-04-28T07:57:30;100158.88;;;11.87;nan
37694;BME280;23531;50.122;8.644;2023-04-28T07:59:31;100163.22;;;11.88;nan
37694;BME280;23531;50.122;8.644;2023-04-28T08:01:33;100162.63;;;12.05;nan
37694;BME280;23531;50.122;8.644;2023-04-28T08:03:34;100162.38;;;12.24;nan
37694;BME280;23531;50.122;8.644;2023-04-28T08:05:37;100164.56;;;12.16;nan
37694;BME280;23531;50.122;8.644;2023-04-28T08:07:38;100170.97;;;12.33;nan
37694;BME280;23531;50.122;8.644;2023-04-28T08:09:40;100163.16;;;12.43;nan
37694;BME280;23531;50.122;8.644;2023-04-28T08:11:46;100158.97;;;12.47;nan
37694;BME280;23531;50.122;8.644;2023-04-28T08:13:47;100162.59;;;12.53;nan
37694;BME280;23531;50.122;8.644;2023-04-28T08:15:48;100163.91;;;12.50;nan
37694;BME280;23531;50.122;8.644;2023-04-28T08:17:50;100160.72;;;12.53;nan
37694;BME280;23531;50.122;8.644;2023-04-28T08:19:51;100175.88;;;12.54;nan
37694;BME280;23531;50.122;8.644;2023-04-28T08:21:53;100180.22;;;12.55;nan
37694;BME280;23531;50.122;8.644;2023-04-28T08:23:54;100182.56;;;12.52;nan
37694;BME280;23531;50.122;8.644;2023-04-28T08:25:57;100178.03;;;12.64;nan
37694;BME280;23531;50.122;8.644;2023-04-28T08:27:58;100186.59;;;12.61;nan
37694;BME280;23531;50.122;8.644;2023-04-28T08:29:59;100177.06;;;12.58;nan
37694;BME280;23531;50.122;8.644;2023-04-28T08:32:00;100181.41;;;12.59;nan
37694;BME280;23531;50.122;8.644;2023-04-28T08:34:01;100195.72;;;12.60;nan
37694;BME280;23531;50.122;8.644;2023-04-28T08:36:03;100190.09;;;12.61;nan
37694;BME280;23531;50.122;8.644;2023-04-28T08:38:05;100195.41;;;12.68;nan
37694;BME280;23531;50.122;8.644;2023-04-28T08:40:07;100202.06;;;12.65;nan
37694;BME280;23531;50.122;8.644;2023-04-28T08:42:10;100187.06;;;12.69;nan
37694;BME280;23531;50.122;8.644;2023-04-28T08:44:12;100190.44;;;12.65;nan
37694;BME280;23531;50.122;8.644;2023-04-28T08:46:13;100186.63;;;12.72;nan
37694;BME280;23531;50.122;8.644;2023-04-28T08:48:16;100187.06;;;12.69;nan
37694;BME280;23531;50.122;8.644;2023-04-28T08:50:19;100196.66;;;12.65;nan
37694;BME280;23531;50.122;8.644;2023-04-28T08:52:21;100182.72;;;12.68;nan
37694;BME280;23531;50.122;8.644;2023-04-28T08:54:25;100185.81;;;12.72;nan
37694;BME280;23531;50.122;8.644;2023-04-28T08:56:28;100190.84;;;12.80;nan
37694;BME280;23531;50.122;8.644;2023-04-28T08:58:34;100187.72;;;12.83;nan
37694;BME280;23531;50.122;8.644;2023-04-28T09:00:35;100196.75;;;12.89;nan
37694;BME280;23531;50.122;8.644;2023-04-28T09:02:37;100189.13;;;12.86;nan
37694;BME280;23531;50.122;8.644;2023-04-28T09:04:41;100190.75;;;12.87;nan
37694;BME280;23531;50.122;8.644;2023-04-28T09:06:42;100201.44;;;12.82;nan
37694;BME280;23531;50.122;8.644;2023-04-28T09:08:44;100203.91;;;12.83;nan
37694;BME280;23531;50.122;8.644;2023-04-28T09:10:45;100196.63;;;12.84;nan
37694;BME280;23531;50.122;8.644;2023-04-28T09:12:47;100195.84;;;12.95;nan
37694;BME280;23531;50.122;8.644;2023-04-28T09:14:50;100194.56;;;12.97;nan
37694;BME280;23531;50.122;8.644;2023-04-28T09:16:58;100187.84;;;13.00;nan
37694;BME280;23531;50.122;8.644;2023-04-28T09:18:59;100191.50;;;12.94;nan
37694;BME280;23531;50.122;8.644;2023-04-28T09:21:04;100186.22;;;13.10;nan
37694;BME280;23531;50.122;8.644;2023-04-28T09:23:12;100188.09;;;13.10;nan
37694;BME280;23531;50.122;8.644;2023-04-28T09:25:14;100187.22;;;13.16;nan
37694;BME280;23531;50.122;8.644;2023-04-28T09:27:16;100184.28;;;13.18;nan
37694;BME280;23531;50.122;8.644;2023-04-28T09:29:25;100187.94;;;13.23;nan
37694;BME280;23531;50.122;8.644;2023-04-28T09:31:28;100192.03;;;13.14;nan
37694;BME280;23531;50.122;8.644;2023-04-28T09:33:29;100186.78;;;13.19;nan
37694;BME280;23531;50.122;8.644;2023-04-28T09:35:40;100189.13;;;13.27;nan
37694;BME280;23531;50.122;8.644;2023-04-28T09:37:41;100179.00;;;13.23;nan
37694;BME280;23531;50.122;8.644;2023-04-28T09:39:43;100179.75;;;13.30;nan
37694;BME280;23531;50.122;8.644;2023-04-28T09:41:45;100179.75;;;13.30;nan
37694;BME280;23531;50.122;8.644;2023-04-28T09:43:46;100191.84;;;13.39;nan
37694;BME280;23531;50.122;8.644;2023-04-28T09:45:47;100190.66;;;13.35;nan
37694;BME280;23531;50.122;8.644;2023-04-28T09:47:50;100187.84;;;13.41;nan
37694;BME280;23531;50.122;8.644;2023-04-28T09:49:54;100196.66;;;13.49;nan
37694;BME280;23531;50.122;8.644;2023-04-28T09:52:01;100199.47;;;13.42;nan
37694;BME280;23531;50.122;8.644;2023-04-28T09:54:11;100203.00;;;13.42;nan
37694;BME280;23531;50.122;8.644;2023-04-28T09:56:13;100198.75;;;13.47;nan
37694;BME280;23531;50.122;8.644;2023-04-28T09:58:19;100198.75;;;13.47;nan
37694;BME280;23531;50.122;8.644;2023-04-28T10:00:20;100192.88;;;13.50;nan
37694;BME280;23531;50.122;8.644;2023-04-28T10:02:22;100192.66;;;13.51;nan
37694;BME280;23531;50.122;8.644;2023-04-28T10:04:25;100188.53;;;13.60;nan
37694;BME280;23531;50.122;8.644;2023-04-28T10:06:30;100188.78;;;13.70;nan
37694;BME280;23531;50.122;8.644;2023-04-28T10:08:33;100188.31;;;13.73;nan
37694;BME280;23531;50.122;8.644;2023-04-28T10:10:35;100188.78;;;13.59;nan
37694;BME280;23531;50.122;8.644;2023-04-28T10:12:37;100190.28;;;13.66;nan
37694;BME280;23531;50.122;8.644;2023-04-28T10:14:39;100185.25;;;13.70;nan
37694;BME280;23531;50.122;8.644;2023-04-28T10:16:41;100183.50;;;13.75;nan
37694;BME280;23531;50.122;8.644;2023-04-28T10:18:43;100179.13;;;13.86;nan
37694;BME280;23531;50.122;8.644;2023-04-28T10:20:47;100166.88;;;13.95;nan
37694;BME280;23531;50.122;8.644;2023-04-28T10:22:52;100171.91;;;14.03;nan
37694;BME280;23531;50.122;8.644;2023-04-28T10:25:07;100169.69;;;14.00;nan
37694;BME280;23531;50.122;8.644;2023-04-28T10:27:13;100167.81;;;14.01;nan
37694;BME280;23531;50.122;8.644;2023-04-28T10:29:14;100161.81;;;14.10;nan
37694;BME280;23531;50.122;8.644;2023-04-28T10:31:17;100163.56;;;14.05;nan
37694;BME280;23531;50.122;8.644;2023-04-28T10:33:22;100163.09;;;14.08;nan
37694;BME280;23531;50.122;8.644;2023-04-28T10:35:41;100166.00;;;14.18;nan
37694;BME280;23531;50.122;8.644;2023-04-28T10:44:43;100167.63;;;14.31;nan
37694;BME280;23531;50.122;8.644;2023-04-28T10:46:58;100160.81;;;14.28;nan
37694;BME280;23531;50.122;8.644;2023-04-28T10:49:00;100160.81;;;14.28;nan
37694;BME280;23531;50.122;8.644;2023-04-28T10:55:39;100149.16;;;14.39;nan
37694;BME280;23531;50.122;8.644;2023-04-28T10:57:40;100145.16;;;14.42;nan
37694;BME280;23531;50.122;8.644;2023-04-28T10:59:41;100135.81;;;14.49;nan
37694;BME280;23531;50.122;8.644;2023-04-28T11:01:44;100144.44;;;14.63;nan
37694;BME280;23531;50.122;8.644;2023-04-28T11:03:47;100139.88;;;14.64;nan
37694;BME280;23531;50.122;8.644;2023-04-28T11:15:10;100135.06;;;14.99;nan